Waynedale, Indiana
Current Conditions -  °F | °C
As of 4:54 PM on Thursday 23 Oct 2014 (Local Time) from KFWA Reporting Station
Broken Clouds Broken Clouds  
Wind Chill: 57°   Ceiling: 25000
Heat Index: 57°   Visibility: 10mi
Dew Point: 38°   Wind: 6mph
Humidity: 49%   Direction: 260°W
Pressure: 30.14"   Gusts: NA
Location:  40.9649°N, 85.1332°W
Report Text: KFWA 232054Z 26005KT 10SM SCT150 BKN250 14/03 A3014 RMK AO2 SLP212 T01390033 56021
Loading
Personal Weather Stations






























Interactive Weather Map
Tropical Storm Tracking
New forecast layout! Learn more

10-Day Weather Forecast

Advertisements
Track Severe Weather on mobile